createdAt,value
2022-10-12T00:00:31.210Z,2.08
2022-10-12T00:05:33.564Z,1.60
2022-10-12T00:10:43.813Z,1.17
2022-10-12T00:15:46.655Z,1.02
2022-10-12T00:21:04.959Z,1.02
2022-10-12T00:26:28.896Z,1.48
2022-10-12T00:31:31.913Z,1.73
2022-10-12T00:36:36.097Z,1.88
2022-10-12T00:41:42.935Z,1.63
2022-10-12T00:46:46.239Z,0.90
2022-10-12T00:51:53.769Z,1.20
2022-10-12T00:56:58.370Z,1.25
2022-10-12T01:02:01.021Z,1.17
2022-10-12T01:07:04.484Z,1.15
2022-10-12T01:12:08.527Z,1.65
2022-10-12T01:17:50.348Z,2.33
2022-10-12T01:23:02.592Z,1.70
2022-10-12T01:28:49.330Z,1.02
2022-10-12T01:34:00.088Z,1.45
2022-10-12T01:39:18.296Z,1.42
2022-10-12T01:44:22.634Z,1.00
2022-10-12T01:49:32.454Z,1.40
2022-10-12T01:54:47.873Z,1.38
2022-10-12T02:00:16.949Z,1.05
2022-10-12T02:05:22.112Z,1.30
2022-10-12T02:10:52.605Z,1.35
2022-10-12T02:15:58.660Z,1.15
2022-10-12T02:21:01.584Z,0.98
2022-10-12T02:26:05.015Z,1.05
2022-10-12T02:31:25.784Z,1.60
2022-10-12T02:37:02.122Z,2.97
2022-10-12T02:42:12.927Z,1.52
2022-10-12T02:47:17.128Z,2.38
2022-10-12T02:52:20.813Z,1.30
2022-10-12T02:57:23.139Z,1.38
2022-10-12T03:02:25.471Z,2.17
2022-10-12T03:07:27.870Z,1.02
2022-10-12T03:12:30.192Z,1.70
2022-10-12T03:17:33.492Z,1.15
2022-10-12T03:22:35.742Z,1.30
2022-10-12T03:27:38.215Z,0.90
2022-10-12T03:32:40.714Z,1.92
2022-10-12T03:37:42.999Z,0.93
2022-10-12T03:42:45.275Z,1.67
2022-10-12T03:47:48.203Z,2.63
2022-10-12T03:52:50.512Z,1.25
2022-10-12T03:57:52.838Z,1.02
2022-10-12T04:02:55.737Z,1.17
2022-10-12T04:07:58.671Z,0.98
2022-10-12T04:13:00.978Z,0.90
2022-10-12T04:18:03.415Z,0.90
2022-10-12T04:23:05.602Z,1.13
2022-10-12T04:28:07.899Z,0.65
2022-10-12T04:33:10.099Z,1.08
2022-10-12T04:38:13.467Z,0.90
2022-10-12T04:43:16.630Z,1.20
2022-10-12T04:48:18.869Z,0.93
2022-10-12T04:53:21.440Z,1.02
2022-10-12T04:58:23.891Z,0.95
2022-10-12T05:03:26.137Z,1.20
2022-10-12T05:08:28.482Z,1.25
2022-10-12T05:13:30.830Z,1.20
2022-10-12T05:18:32.949Z,0.85
2022-10-12T05:23:35.169Z,1.55
2022-10-12T05:28:41.097Z,1.30
2022-10-12T05:33:43.607Z,1.30
2022-10-12T05:38:45.749Z,1.77
2022-10-12T05:43:47.915Z,1.13
2022-10-12T05:48:50.110Z,1.20
2022-10-12T05:53:52.405Z,1.20
2022-10-12T05:58:54.574Z,1.08
2022-10-12T06:03:56.889Z,1.17
2022-10-12T06:08:59.128Z,1.15
2022-10-12T06:14:01.286Z,0.95
2022-10-12T06:19:03.928Z,0.93
2022-10-12T06:24:06.705Z,0.70
2022-10-12T06:29:12.848Z,1.55
2022-10-12T06:34:16.571Z,0.95
2022-10-12T06:39:19.968Z,2.28
2022-10-12T06:44:22.621Z,2.55
2022-10-12T06:49:27.892Z,2.35
2022-10-12T06:54:30.073Z,2.03
2022-10-12T06:59:32.185Z,2.28
2022-10-12T07:04:34.391Z,2.80
2022-10-12T07:09:36.666Z,3.22
2022-10-12T07:14:39.060Z,2.05
2022-10-12T07:19:41.198Z,2.17
2022-10-12T07:24:43.321Z,2.53
2022-10-12T07:29:45.461Z,3.38
2022-10-12T07:34:47.576Z,4.45
2022-10-12T07:39:49.930Z,4.03
2022-10-12T07:44:52.173Z,5.30
2022-10-12T07:49:54.430Z,3.92
2022-10-12T07:54:56.532Z,5.18
2022-10-12T07:59:58.812Z,3.88
2022-10-12T08:05:01.028Z,4.60
2022-10-12T08:10:03.361Z,2.65
2022-10-12T08:15:06.359Z,3.42
2022-10-12T08:20:09.214Z,6.47
2022-10-12T08:25:11.578Z,6.47
2022-10-12T08:30:17.094Z,5.95
2022-10-12T08:35:22.897Z,5.28
2022-10-12T08:40:35.193Z,6.35
2022-10-12T08:45:57.788Z,6.90
2022-10-12T08:51:06.185Z,7.35
2022-10-12T09:02:11.347Z,4.88
2022-10-12T09:07:40.350Z,4.00
2022-10-12T09:13:01.196Z,3.63
2022-10-12T09:19:15.485Z,4.60
2022-10-12T09:47:30.607Z,2.25
2022-10-12T10:00:01.111Z,3.80
2022-10-12T10:25:37.784Z,3.60
2022-10-12T10:44:38.001Z,2.03
2022-10-12T10:56:39.443Z,1.05
2022-10-12T11:02:20.743Z,1.30
2022-10-12T11:07:59.030Z,1.02
2022-10-12T11:20:36.552Z,1.42
2022-10-12T11:33:12.756Z,1.03
2022-10-12T11:39:34.444Z,1.48
2022-10-12T11:51:29.554Z,1.40
2022-10-12T11:57:10.368Z,1.13
2022-10-12T12:09:29.182Z,1.70
2022-10-12T12:15:22.667Z,0.98
2022-10-12T12:26:21.847Z,0.50
2022-10-12T12:37:33.070Z,0.90
2022-10-12T12:42:44.215Z,0.80
2022-10-12T12:54:03.188Z,1.17
2022-10-12T13:05:42.243Z,1.05
2022-10-12T13:11:22.775Z,1.20
2022-10-12T13:22:37.588Z,1.48
2022-10-12T13:27:51.687Z,0.98
2022-10-12T13:33:32.608Z,2.20
2022-10-12T13:39:00.148Z,1.27
2022-10-12T13:44:42.911Z,1.30
2022-10-12T13:49:56.596Z,0.88
2022-10-12T14:00:51.241Z,1.77
2022-10-12T14:06:02.205Z,0.57
2022-10-12T14:11:07.076Z,0.50
2022-10-12T14:16:16.725Z,1.05
2022-10-12T14:21:44.794Z,0.50
2022-10-12T14:27:09.448Z,0.77
2022-10-12T14:32:27.654Z,0.82
2022-10-12T14:37:39.906Z,0.50
2022-10-12T14:43:21.116Z,0.65
2022-10-12T14:48:58.312Z,0.93
2022-10-12T14:54:25.444Z,0.75
2022-10-12T14:59:33.846Z,2.33
2022-10-12T15:04:44.755Z,1.02
2022-10-12T15:10:00.441Z,0.90
2022-10-12T15:15:42.237Z,1.30
2022-10-12T15:21:09.047Z,1.10
2022-10-12T15:31:29.531Z,1.45
2022-10-12T15:36:33.308Z,0.77
2022-10-12T15:41:45.476Z,0.93
2022-10-12T15:46:57.201Z,0.85
2022-10-12T15:52:32.937Z,1.35
2022-10-12T16:03:44.883Z,0.93
2022-10-12T16:09:05.295Z,0.60
2022-10-12T16:14:44.399Z,0.70
2022-10-12T16:26:26.352Z,2.75
2022-10-12T16:31:50.548Z,4.03
2022-10-12T16:37:27.372Z,4.35
2022-10-12T16:48:36.273Z,4.13
2022-10-12T16:54:09.061Z,3.65
2022-10-12T17:00:09.502Z,3.20
2022-10-12T17:06:15.080Z,1.83
2022-10-12T17:12:27.117Z,1.77
2022-10-12T17:24:30.852Z,1.23
2022-10-12T17:29:45.762Z,2.33
2022-10-12T17:46:50.505Z,13.57
2022-10-12T18:09:36.155Z,3.95
2022-10-12T18:15:07.453Z,3.20
2022-10-12T18:26:52.288Z,2.55
2022-10-12T18:38:42.103Z,2.42
2022-10-12T19:27:17.734Z,3.13
2022-10-12T20:17:49.192Z,2.70
2022-10-12T20:43:37.622Z,1.90
2022-10-12T21:41:50.347Z,1.58
2022-10-12T21:47:06.505Z,2.90
2022-10-12T21:52:16.392Z,2.65
2022-10-12T21:57:36.301Z,2.15
2022-10-12T22:08:30.943Z,2.60
2022-10-12T22:13:50.982Z,3.00
2022-10-12T22:18:58.930Z,3.22
2022-10-12T22:24:09.360Z,2.63
2022-10-12T22:29:11.947Z,2.70
2022-10-12T22:34:16.477Z,5.35
2022-10-12T22:39:23.719Z,4.05
2022-10-12T22:44:39.000Z,3.40
2022-10-12T22:49:48.244Z,4.38
2022-10-12T22:54:52.437Z,5.68
2022-10-12T23:00:03.650Z,4.05
2022-10-12T23:05:20.449Z,4.30
2022-10-12T23:10:27.308Z,4.85
2022-10-12T23:21:01.194Z,3.92
2022-10-12T23:26:23.064Z,3.75
2022-10-12T23:31:29.974Z,3.53
2022-10-12T23:36:45.493Z,4.57
2022-10-12T23:41:48.027Z,6.70
2022-10-12T23:46:51.639Z,4.03
2022-10-12T23:51:58.871Z,3.47
2022-10-12T23:57:02.544Z,5.88
